createdAt,value
2019-04-30T00:01:40.296Z,45.67
2019-04-30T00:10:03.055Z,45.87
2019-04-30T00:12:38.025Z,43.40
2019-04-30T00:15:06.263Z,45.33
2019-04-30T00:17:36.101Z,44.77
2019-04-30T00:20:07.091Z,46.37
2019-04-30T00:22:39.298Z,45.80
2019-04-30T00:25:08.508Z,44.73
2019-04-30T00:27:38.524Z,44.97
2019-04-30T00:30:09.257Z,46.87
2019-04-30T00:32:43.798Z,43.80
2019-04-30T00:35:11.826Z,46.63
2019-04-30T00:37:42.352Z,45.03
2019-04-30T00:40:15.289Z,44.80
2019-04-30T00:42:45.790Z,45.30
2019-04-30T00:45:15.947Z,45.57
2019-04-30T00:47:47.893Z,46.17
2019-04-30T00:50:17.396Z,45.53
2019-04-30T00:52:47.282Z,49.47
2019-04-30T00:55:17.027Z,45.73
2019-04-30T00:57:47.526Z,46.73
2019-04-30T01:00:25.091Z,48.23
2019-04-30T01:03:09.958Z,47.23
2019-04-30T01:05:43.876Z,46.23
2019-04-30T01:08:11.564Z,44.87
2019-04-30T01:10:41.277Z,46.93
2019-04-30T01:13:12.120Z,45.00
2019-04-30T01:15:43.947Z,43.80
2019-04-30T01:18:13.683Z,42.87
2019-04-30T01:20:43.519Z,44.97
2019-04-30T01:23:16.230Z,43.80
2019-04-30T01:25:49.970Z,42.53
2019-04-30T01:28:22.882Z,44.00
2019-04-30T01:30:53.926Z,44.00
2019-04-30T01:33:21.351Z,42.87
2019-04-30T01:35:51.211Z,45.30
2019-04-30T01:38:21.094Z,43.77
2019-04-30T01:40:51.252Z,42.23
2019-04-30T01:43:30.485Z,44.70
2019-04-30T01:45:52.668Z,42.43
2019-04-30T01:48:22.533Z,43.00
2019-04-30T01:50:52.390Z,44.23
2019-04-30T01:53:22.194Z,46.77
2019-04-30T01:56:09.734Z,47.50
2019-04-30T01:58:46.758Z,43.93
2019-04-30T02:01:21.004Z,46.37
2019-04-30T02:03:50.851Z,44.87
2019-04-30T02:06:20.727Z,47.00
2019-04-30T02:08:50.569Z,47.47
2019-04-30T02:11:20.462Z,46.33
2019-04-30T02:13:50.324Z,45.83
2019-04-30T02:16:21.159Z,46.20
2019-04-30T02:18:51.279Z,49.83
2019-04-30T02:21:21.044Z,45.00
2019-04-30T02:23:50.782Z,45.77
2019-04-30T02:26:20.621Z,43.80
2019-04-30T02:28:50.405Z,44.77
2019-04-30T02:31:22.897Z,45.27
2019-04-30T02:33:53.597Z,45.17
2019-04-30T02:36:40.026Z,44.33
2019-04-30T02:39:11.158Z,42.43
2019-04-30T02:41:41.417Z,43.87
2019-04-30T02:44:12.104Z,42.43
2019-04-30T02:46:43.650Z,41.13
2019-04-30T02:49:15.115Z,42.37
2019-04-30T02:51:45.364Z,38.70
2019-04-30T02:54:20.338Z,38.97
2019-04-30T02:56:51.270Z,40.40
2019-04-30T02:59:21.000Z,42.07
2019-04-30T03:01:50.917Z,39.33
2019-04-30T03:04:20.682Z,43.03
2019-04-30T03:06:50.628Z,39.90
2019-04-30T03:09:20.543Z,43.03
2019-04-30T03:11:50.463Z,41.57
2019-04-30T03:14:20.483Z,40.83
2019-04-30T03:17:00.157Z,41.80
2019-04-30T03:19:50.037Z,40.23
2019-04-30T03:22:20.472Z,39.37
2019-04-30T03:24:50.361Z,39.73
2019-04-30T03:27:21.953Z,39.80
2019-04-30T03:29:51.783Z,41.47
2019-04-30T03:32:22.858Z,39.90
2019-04-30T03:34:53.038Z,40.83
2019-04-30T03:37:22.771Z,40.73
2019-04-30T03:39:52.590Z,40.53
2019-04-30T03:42:22.394Z,39.27
2019-04-30T03:44:52.115Z,39.60
2019-04-30T03:47:21.817Z,40.17
2019-04-30T03:49:51.615Z,39.53
2019-04-30T03:52:21.325Z,38.57
2019-04-30T03:54:51.111Z,37.53
2019-04-30T03:57:20.823Z,40.50
2019-04-30T03:59:50.733Z,41.27
2019-04-30T04:02:24.985Z,38.37
2019-04-30T04:05:02.407Z,38.60
2019-04-30T04:07:33.798Z,40.47
2019-04-30T04:10:21.986Z,38.60
2019-04-30T04:12:51.778Z,40.50
2019-04-30T04:15:21.489Z,41.53
2019-04-30T04:17:51.361Z,37.43
2019-04-30T04:20:21.127Z,37.63
2019-04-30T04:22:50.929Z,37.50
2019-04-30T04:25:20.722Z,36.17
2019-04-30T04:27:51.085Z,37.17
2019-04-30T04:30:22.187Z,38.03
2019-04-30T04:32:51.896Z,37.67
2019-04-30T04:35:21.833Z,36.33
2019-04-30T04:37:51.619Z,38.60
2019-04-30T04:40:21.502Z,37.90
2019-04-30T04:42:51.311Z,36.23
2019-04-30T04:45:21.079Z,38.47
2019-04-30T04:47:50.877Z,37.70
2019-04-30T04:50:20.795Z,38.50
2019-04-30T04:52:50.495Z,38.00
2019-04-30T04:55:22.295Z,37.67
2019-04-30T04:57:51.677Z,37.97
2019-04-30T05:00:21.554Z,37.67
2019-04-30T05:02:59.333Z,38.27
2019-04-30T05:05:29.915Z,35.97
2019-04-30T05:07:59.700Z,38.83
2019-04-30T05:10:29.547Z,37.63
2019-04-30T05:12:59.377Z,35.87
2019-04-30T05:15:29.492Z,36.47
2019-04-30T05:17:59.407Z,36.77
2019-04-30T05:20:29.343Z,37.07
2019-04-30T05:22:59.187Z,35.40
2019-04-30T05:25:29.593Z,36.57
2019-04-30T05:27:59.415Z,35.77
2019-04-30T05:30:29.615Z,36.70
2019-04-30T05:32:59.598Z,36.77
2019-04-30T05:35:31.037Z,34.90
2019-04-30T05:38:00.875Z,35.93
2019-04-30T05:40:30.723Z,36.60
2019-04-30T05:43:00.495Z,37.97
2019-04-30T05:45:30.241Z,37.27
2019-04-30T05:48:00.143Z,35.60
2019-04-30T05:50:29.927Z,35.87
2019-04-30T05:52:59.777Z,34.43
2019-04-30T05:55:29.578Z,30.90
2019-04-30T05:58:01.536Z,34.87
2019-04-30T06:00:30.996Z,35.40
2019-04-30T06:03:00.875Z,34.73
2019-04-30T06:05:30.651Z,33.67
2019-04-30T06:08:00.531Z,34.77
2019-04-30T06:10:44.268Z,33.50
2019-04-30T06:13:15.793Z,33.10
2019-04-30T06:15:59.440Z,33.70
2019-04-30T06:18:29.208Z,33.93
2019-04-30T06:20:59.515Z,33.50
2019-04-30T06:23:29.537Z,32.53
2019-04-30T06:26:09.037Z,31.63
2019-04-30T06:28:32.039Z,32.03
2019-04-30T06:31:01.990Z,31.30
2019-04-30T06:33:31.812Z,31.53
2019-04-30T06:36:02.350Z,32.47
2019-04-30T06:38:32.193Z,33.70
2019-04-30T06:41:02.007Z,33.60
2019-04-30T06:43:32.154Z,32.50
2019-04-30T06:46:02.112Z,32.03
2019-04-30T06:48:34.138Z,30.43
2019-04-30T06:51:03.951Z,33.23
2019-04-30T06:53:33.671Z,33.37
2019-04-30T06:56:03.517Z,31.43
2019-04-30T06:58:33.398Z,31.53
2019-04-30T07:01:03.107Z,30.07
2019-04-30T07:03:32.926Z,30.20
2019-04-30T07:06:04.118Z,30.53
2019-04-30T07:08:51.969Z,29.67
2019-04-30T07:11:20.640Z,29.50
2019-04-30T07:13:52.352Z,30.10
2019-04-30T07:16:22.319Z,29.70
2019-04-30T07:18:52.175Z,30.37
2019-04-30T07:21:22.235Z,28.77
2019-04-30T07:23:52.342Z,27.63
2019-04-30T07:26:24.525Z,29.07
2019-04-30T07:28:55.311Z,28.33
2019-04-30T07:31:25.430Z,30.37
2019-04-30T07:33:55.209Z,29.33
2019-04-30T07:36:42.442Z,28.23
2019-04-30T07:38:57.024Z,28.83
2019-04-30T07:41:30.861Z,30.83
2019-04-30T07:43:59.490Z,30.57
2019-04-30T07:46:29.991Z,28.83
2019-04-30T07:49:00.205Z,27.70
2019-04-30T07:51:32.194Z,27.87
2019-04-30T07:54:01.642Z,27.70
2019-04-30T07:56:37.211Z,28.20
2019-04-30T07:59:03.110Z,27.67
2019-04-30T08:01:32.959Z,28.63
2019-04-30T08:04:04.395Z,30.27
2019-04-30T08:06:34.364Z,30.47
2019-04-30T08:09:10.132Z,30.03
2019-04-30T08:11:43.307Z,30.13
2019-04-30T08:14:11.624Z,30.07
2019-04-30T08:16:41.450Z,29.50
2019-04-30T08:19:12.006Z,29.97
2019-04-30T08:21:41.922Z,29.03
2019-04-30T08:24:11.855Z,29.07
2019-04-30T08:26:41.658Z,30.90
2019-04-30T08:29:11.538Z,30.00
2019-04-30T08:31:41.249Z,30.80
2019-04-30T08:34:11.169Z,31.30
2019-04-30T08:36:44.661Z,33.73
2019-04-30T08:39:24.787Z,34.17
2019-04-30T08:41:54.688Z,34.33
2019-04-30T08:44:24.425Z,35.67
2019-04-30T08:46:54.210Z,36.93
2019-04-30T08:49:24.430Z,38.83
2019-04-30T08:51:54.320Z,37.90
2019-04-30T08:54:24.075Z,37.67
2019-04-30T08:56:53.830Z,36.93
2019-04-30T08:59:24.713Z,37.30
2019-04-30T09:01:54.594Z,37.27
2019-04-30T09:04:25.963Z,37.97
2019-04-30T09:06:56.113Z,37.33
2019-04-30T09:09:25.969Z,33.47
2019-04-30T09:11:56.120Z,33.73
2019-04-30T09:14:25.991Z,37.70
2019-04-30T09:16:55.867Z,40.43
2019-04-30T09:19:25.719Z,40.10
2019-04-30T09:21:55.635Z,37.70
2019-04-30T09:24:25.622Z,34.77
2019-04-30T09:26:55.404Z,35.87
2019-04-30T09:29:25.200Z,36.73
2019-04-30T09:31:55.051Z,35.53
2019-04-30T09:34:24.862Z,34.70
2019-04-30T09:36:54.662Z,34.77
2019-04-30T09:39:24.537Z,34.73
2019-04-30T09:41:54.274Z,34.93
2019-04-30T09:44:24.173Z,35.07
2019-04-30T09:46:54.109Z,33.87
2019-04-30T09:49:23.930Z,32.30
2019-04-30T09:51:53.761Z,31.33
2019-04-30T09:54:24.130Z,31.73
2019-04-30T09:56:54.170Z,30.53
2019-04-30T09:59:24.228Z,29.93
2019-04-30T10:01:53.987Z,29.13
2019-04-30T10:04:24.015Z,30.47
2019-04-30T10:06:54.187Z,28.20
2019-04-30T10:09:24.055Z,28.20
2019-04-30T10:11:55.510Z,27.37
2019-04-30T10:14:25.283Z,28.57
2019-04-30T10:16:56.743Z,26.80
2019-04-30T10:19:26.988Z,25.93
2019-04-30T10:21:58.874Z,26.87
2019-04-30T10:24:31.283Z,25.80
2019-04-30T10:27:02.561Z,24.97
2019-04-30T10:29:32.379Z,25.43
2019-04-30T10:32:02.262Z,25.17
2019-04-30T10:34:32.047Z,24.90
2019-04-30T10:37:02.893Z,27.10
2019-04-30T10:39:32.917Z,25.63
2019-04-30T10:42:03.153Z,24.73
2019-04-30T10:44:33.034Z,25.30
2019-04-30T10:47:02.836Z,25.83
2019-04-30T10:49:32.811Z,25.80
2019-04-30T10:52:02.705Z,26.93
2019-04-30T10:54:32.571Z,26.87
2019-04-30T10:57:04.470Z,27.20
2019-04-30T10:59:34.455Z,27.20
2019-04-30T11:02:04.700Z,26.93
2019-04-30T11:04:34.499Z,27.43
2019-04-30T11:07:05.276Z,26.17
2019-04-30T11:09:35.802Z,26.83
2019-04-30T11:12:06.515Z,26.60
2019-04-30T11:14:36.407Z,24.97
2019-04-30T11:17:06.780Z,26.07
2019-04-30T11:19:39.096Z,24.97
2019-04-30T11:22:09.362Z,25.33
2019-04-30T11:24:53.801Z,25.60
2019-04-30T11:27:11.693Z,25.60
2019-04-30T11:29:45.635Z,26.03
2019-04-30T11:32:17.851Z,25.73
2019-04-30T11:34:47.835Z,26.40
2019-04-30T11:37:18.127Z,25.00
2019-04-30T11:39:48.184Z,26.20
2019-04-30T11:42:18.217Z,25.20
2019-04-30T11:44:48.804Z,23.97
2019-04-30T11:47:24.133Z,25.03
2019-04-30T11:49:54.564Z,24.10
2019-04-30T11:52:24.489Z,23.80
2019-04-30T11:54:54.788Z,23.97
2019-04-30T11:57:24.914Z,23.97
2019-04-30T11:59:54.701Z,23.70
2019-04-30T12:02:26.431Z,23.80
2019-04-30T12:04:56.285Z,26.20
2019-04-30T12:07:27.809Z,22.90
2019-04-30T12:10:05.181Z,21.83
2019-04-30T12:12:38.657Z,21.90
2019-04-30T12:15:09.351Z,22.80
2019-04-30T12:17:39.424Z,21.77
2019-04-30T12:20:09.761Z,20.70
2019-04-30T12:22:39.781Z,22.00
2019-04-30T12:25:10.131Z,20.47
2019-04-30T12:27:40.066Z,19.10
2019-04-30T12:30:10.565Z,16.80
2019-04-30T12:32:40.522Z,16.70
2019-04-30T12:35:11.482Z,15.87
2019-04-30T12:37:41.279Z,14.83
2019-04-30T12:40:25.834Z,14.13
2019-04-30T12:42:42.777Z,15.67
2019-04-30T12:45:12.750Z,15.50
2019-04-30T12:47:44.169Z,13.73
2019-04-30T12:50:32.687Z,13.20
2019-04-30T12:53:04.123Z,12.97
2019-04-30T12:55:44.698Z,12.57
2019-04-30T12:58:17.122Z,14.47
2019-04-30T13:00:49.112Z,14.50
2019-04-30T13:03:20.469Z,13.70
2019-04-30T13:05:56.107Z,13.60
2019-04-30T13:08:27.670Z,12.33
2019-04-30T13:11:00.300Z,13.83
2019-04-30T13:13:31.997Z,14.20
2019-04-30T13:16:01.661Z,13.80
2019-04-30T13:18:31.465Z,13.27
2019-04-30T13:21:01.469Z,13.37
2019-04-30T13:23:31.333Z,13.33
2019-04-30T13:26:03.008Z,13.37
2019-04-30T13:28:51.334Z,13.20
2019-04-30T13:31:22.466Z,13.37
2019-04-30T13:34:09.020Z,14.10
2019-04-30T13:36:40.708Z,12.80
2019-04-30T13:39:16.697Z,12.90
2019-04-30T13:42:14.575Z,13.07
2019-04-30T13:44:39.411Z,13.73
2019-04-30T13:47:10.914Z,13.73
2019-04-30T13:49:41.925Z,13.30
2019-04-30T13:52:11.638Z,13.00
2019-04-30T13:54:41.364Z,13.70
2019-04-30T13:57:11.086Z,13.73
2019-04-30T13:59:40.958Z,13.17
2019-04-30T14:02:10.973Z,13.73
2019-04-30T14:04:42.494Z,12.73
2019-04-30T14:07:25.913Z,13.27
2019-04-30T14:09:55.781Z,12.70
2019-04-30T14:12:25.566Z,13.63
2019-04-30T14:14:55.292Z,12.60
2019-04-30T14:17:25.330Z,13.67
2019-04-30T14:19:55.087Z,13.30
2019-04-30T14:22:24.944Z,13.37
2019-04-30T14:24:54.695Z,14.37
2019-04-30T14:27:26.709Z,14.20
2019-04-30T14:29:56.995Z,14.00
2019-04-30T14:32:28.803Z,13.83
2019-04-30T14:35:01.542Z,13.07
2019-04-30T14:37:38.877Z,13.80
2019-04-30T14:40:22.643Z,15.07
2019-04-30T14:43:04.038Z,14.40
2019-04-30T14:45:44.831Z,14.20
2019-04-30T14:48:30.608Z,13.90
2019-04-30T14:51:01.232Z,14.17
2019-04-30T14:53:35.298Z,13.97
2019-04-30T14:56:23.582Z,15.37
2019-04-30T14:59:13.496Z,14.67
2019-04-30T15:01:51.563Z,14.77
2019-04-30T15:04:21.637Z,14.97
2019-04-30T15:06:51.468Z,15.57
2019-04-30T15:09:21.826Z,15.57
2019-04-30T15:11:51.685Z,15.87
2019-04-30T15:14:21.499Z,14.47
2019-04-30T15:16:51.217Z,15.80
2019-04-30T15:19:21.095Z,15.97
2019-04-30T15:21:50.951Z,16.93
2019-04-30T15:24:30.420Z,15.80
2019-04-30T15:27:00.289Z,17.17
2019-04-30T15:29:30.124Z,17.17
2019-04-30T15:32:00.352Z,16.63
2019-04-30T15:34:30.160Z,16.70
2019-04-30T15:36:59.958Z,17.97
2019-04-30T15:39:39.333Z,17.07
2019-04-30T15:42:16.039Z,18.87
2019-04-30T15:44:46.560Z,18.60
2019-04-30T15:47:18.963Z,18.87
2019-04-30T15:49:48.878Z,20.17
2019-04-30T15:52:19.069Z,20.00
2019-04-30T15:54:49.244Z,20.70
2019-04-30T15:57:19.069Z,21.40
2019-04-30T15:59:48.920Z,20.53
2019-04-30T16:02:20.583Z,19.90
2019-04-30T16:04:59.794Z,20.00
2019-04-30T16:07:29.591Z,20.73
2019-04-30T16:10:01.029Z,19.17
2019-04-30T16:12:42.248Z,19.83
2019-04-30T16:15:13.833Z,20.40
2019-04-30T16:17:45.221Z,20.37
2019-04-30T16:20:15.267Z,20.43
2019-04-30T16:22:45.151Z,20.07
2019-04-30T16:25:15.036Z,20.07
2019-04-30T16:27:44.852Z,20.07
2019-04-30T16:30:15.302Z,20.57
2019-04-30T16:32:45.156Z,20.10
2019-04-30T16:35:14.999Z,19.23
2019-04-30T16:37:44.873Z,18.83
2019-04-30T16:40:14.854Z,18.43
2019-04-30T16:42:44.703Z,18.87
2019-04-30T16:45:14.785Z,18.10
2019-04-30T16:47:44.543Z,17.77
2019-04-30T16:50:14.639Z,17.70
2019-04-30T16:52:44.416Z,17.83
2019-04-30T16:55:14.277Z,18.80
2019-04-30T16:57:44.146Z,18.13
2019-04-30T17:00:15.737Z,17.93
2019-04-30T17:02:47.143Z,17.43
2019-04-30T17:05:19.844Z,17.70
2019-04-30T17:07:54.326Z,18.43
2019-04-30T17:10:41.883Z,17.47
2019-04-30T17:13:15.954Z,17.63
2019-04-30T17:15:47.494Z,17.17
2019-04-30T17:18:19.070Z,17.73
2019-04-30T17:20:49.304Z,17.80
2019-04-30T17:23:19.425Z,17.97
2019-04-30T17:25:49.310Z,17.57
2019-04-30T17:28:19.138Z,17.00
2019-04-30T17:30:49.248Z,16.93
2019-04-30T17:33:19.047Z,16.57
2019-04-30T17:35:49.852Z,17.47
2019-04-30T17:38:19.865Z,17.13
2019-04-30T17:40:49.949Z,17.20
2019-04-30T17:43:19.838Z,16.97
2019-04-30T17:45:50.373Z,16.63
2019-04-30T17:48:20.307Z,18.13
2019-04-30T17:50:51.109Z,17.00
2019-04-30T17:53:20.965Z,17.53
2019-04-30T17:55:50.772Z,17.07
2019-04-30T17:58:20.778Z,18.70
2019-04-30T18:00:52.240Z,18.97
2019-04-30T18:03:22.148Z,18.30
2019-04-30T18:05:51.919Z,17.83
2019-04-30T18:08:24.060Z,17.97
2019-04-30T18:10:54.724Z,18.13
2019-04-30T18:13:27.056Z,19.30
2019-04-30T18:16:00.219Z,18.90
2019-04-30T18:18:30.432Z,18.00
2019-04-30T18:21:01.936Z,18.73
2019-04-30T18:23:33.584Z,18.10
2019-04-30T18:26:14.528Z,18.23
2019-04-30T18:28:47.385Z,17.27
2019-04-30T18:31:18.704Z,18.27
2019-04-30T18:33:49.537Z,17.70
2019-04-30T18:36:20.172Z,18.20
2019-04-30T18:38:50.315Z,18.03
2019-04-30T18:41:20.247Z,17.43
2019-04-30T18:43:50.108Z,17.57
2019-04-30T18:46:19.980Z,17.67
2019-04-30T18:48:52.542Z,17.63
2019-04-30T18:51:33.816Z,18.13
2019-04-30T18:53:52.716Z,18.50
2019-04-30T18:56:22.595Z,18.17
2019-04-30T18:58:52.361Z,19.70
2019-04-30T19:01:22.241Z,18.80
2019-04-30T19:03:52.057Z,18.27
2019-04-30T19:06:26.284Z,18.07
2019-04-30T19:09:09.632Z,17.33
2019-04-30T19:11:41.114Z,17.93
2019-04-30T19:14:15.580Z,16.53
2019-04-30T19:16:46.992Z,17.93
2019-04-30T19:19:35.287Z,17.60
2019-04-30T19:22:05.411Z,16.87
2019-04-30T19:24:36.463Z,17.53
2019-04-30T19:27:08.587Z,18.17
2019-04-30T19:29:38.288Z,17.37
2019-04-30T19:32:09.426Z,18.03
2019-04-30T19:34:42.808Z,16.30
2019-04-30T19:37:16.120Z,17.80
2019-04-30T19:39:51.123Z,15.83
2019-04-30T19:42:23.351Z,16.10
2019-04-30T19:44:59.772Z,16.13
2019-04-30T19:47:26.253Z,15.43
2019-04-30T19:50:00.321Z,13.93
2019-04-30T19:52:34.439Z,13.03
2019-04-30T19:55:09.296Z,13.20
2019-04-30T19:57:39.921Z,13.33
2019-04-30T20:00:14.017Z,14.17
2019-04-30T20:02:48.690Z,13.10
2019-04-30T20:05:24.544Z,13.40
2019-04-30T20:07:59.097Z,13.93
2019-04-30T20:10:28.833Z,13.37
2019-04-30T20:12:58.834Z,13.93
2019-04-30T20:15:29.807Z,14.90
2019-04-30T20:18:01.009Z,13.63
2019-04-30T20:20:35.017Z,13.97
2019-04-30T20:23:05.131Z,14.00
2019-04-30T20:25:34.949Z,14.37
2019-04-30T20:28:04.871Z,14.37
2019-04-30T20:30:39.904Z,14.70
2019-04-30T20:33:10.038Z,14.00
2019-04-30T20:35:41.148Z,14.20
2019-04-30T20:38:26.897Z,14.83
2019-04-30T20:41:02.310Z,14.87
2019-04-30T20:43:28.717Z,13.70
2019-04-30T20:46:00.713Z,15.80
2019-04-30T20:48:30.083Z,15.00
2019-04-30T20:51:01.402Z,16.03
2019-04-30T20:53:31.475Z,16.50
2019-04-30T20:56:01.201Z,18.03
2019-04-30T20:58:30.959Z,19.50
2019-04-30T21:01:06.210Z,19.33
2019-04-30T21:03:32.308Z,18.83
2019-04-30T21:06:02.096Z,19.23
2019-04-30T21:08:31.907Z,20.60
2019-04-30T21:11:01.618Z,20.20
2019-04-30T21:13:31.428Z,20.23
2019-04-30T21:16:01.290Z,21.37
2019-04-30T21:18:32.554Z,20.43
2019-04-30T21:21:02.496Z,23.13
2019-04-30T21:23:32.205Z,21.90
2019-04-30T21:26:02.015Z,22.77
2019-04-30T21:28:31.830Z,22.30
2019-04-30T21:31:03.364Z,21.80
2019-04-30T21:33:34.837Z,22.90
2019-04-30T21:36:06.414Z,23.03
2019-04-30T21:38:38.953Z,26.10
2019-04-30T21:41:09.986Z,26.07
2019-04-30T21:43:39.908Z,25.97
2019-04-30T21:46:09.656Z,28.67
2019-04-30T21:48:39.348Z,29.57
2019-04-30T21:51:10.566Z,31.33
2019-04-30T21:53:40.257Z,29.10
2019-04-30T21:56:10.002Z,28.70
2019-04-30T21:58:39.736Z,29.33
2019-04-30T22:01:14.321Z,31.07
2019-04-30T22:03:45.494Z,31.13
2019-04-30T22:06:15.527Z,33.53
2019-04-30T22:08:45.393Z,32.43
2019-04-30T22:11:15.406Z,34.07
2019-04-30T22:13:45.113Z,32.93
2019-04-30T22:16:14.912Z,33.50
2019-04-30T22:18:44.658Z,33.00
2019-04-30T22:21:14.493Z,33.93
2019-04-30T22:23:44.192Z,32.20
2019-04-30T22:26:14.007Z,32.60
2019-04-30T22:28:43.817Z,34.00
2019-04-30T22:31:13.579Z,33.83
2019-04-30T22:33:43.380Z,34.03
2019-04-30T22:36:28.833Z,33.53
2019-04-30T22:39:00.061Z,33.53
2019-04-30T22:41:31.645Z,34.40
2019-04-30T22:44:01.471Z,34.23
2019-04-30T22:46:31.235Z,35.47
2019-04-30T22:49:01.148Z,34.50
2019-04-30T22:51:30.855Z,33.67
2019-04-30T22:54:00.623Z,34.80
2019-04-30T22:56:30.343Z,35.33
2019-04-30T22:59:00.089Z,34.73
2019-04-30T23:01:49.946Z,33.93
2019-04-30T23:04:21.451Z,35.90
2019-04-30T23:06:51.389Z,38.77
2019-04-30T23:09:22.140Z,36.23
2019-04-30T23:11:51.934Z,36.70
2019-04-30T23:14:21.787Z,38.00
2019-04-30T23:16:51.651Z,38.57
2019-04-30T23:19:21.412Z,36.07
2019-04-30T23:21:51.205Z,36.77
2019-04-30T23:24:21.092Z,36.30
2019-04-30T23:26:50.823Z,38.10
2019-04-30T23:29:20.528Z,39.50
2019-04-30T23:31:50.872Z,38.73
2019-04-30T23:34:20.664Z,35.67
2019-04-30T23:36:50.367Z,36.90
2019-04-30T23:39:20.233Z,38.20
2019-04-30T23:41:50.028Z,38.63
2019-04-30T23:44:19.778Z,39.60
2019-04-30T23:46:49.486Z,38.20
2019-04-30T23:49:19.213Z,38.30
2019-04-30T23:51:50.522Z,36.20
2019-04-30T23:54:20.755Z,38.00
2019-04-30T23:56:50.544Z,35.73
2019-04-30T23:59:20.375Z,36.93
